Tiempo atmosférico en la estación meteorológica de Barcelona Aeropuerto, Barcelona (4 m.)



Fecha
DESCASC
Temp. máxima en grados centígrados (hora)
DESCASC
Temp. mínima en grados centígrados (hora)
DESCASC
Temp. media en grados centígrados
DESCASC
Racha de viento máxima en m/sg (hora)
DESCASC
Velocidad máxima media en intervalos de 10 minutos(hora)
DESCASC
Precipitaciones diarias en mm
DESCASC
Precipitaciones de 00:00 a 06:00 en mm
DESCASC
Precipitaciones de 06:00 a 12:00 en mm
DESCASC
Precipitaciones de 12:00 a 18:00 en mm
DESCASC
Precipitaciones de 18:00 a 24:00 en mm
DESCASC
23-06-2019 26.5 (18:10) 20.1 (03:30) 23.3 11.39 (15:20) 9.44 (15:50) 0 0 0 0 0
22-06-2019 26.6 (14:40) 19.2 (06:00) 22.9 13.89 (19:00) 10.83 (18:50) 0 0 0 0 0
21-06-2019 26.7 (10:40) 20 (06:00) 23.4 8.89 (10:30) 5.56 (12:30) 0 0 0 0 0
20-06-2019 25 (16:20) 19.8 (00:00) 22.4 12.5 (19:40) 7.22 (10:40) 0 0 0 0 0
19-06-2019 25.1 (15:30) 17.6 (00:00) 21.4 9.17 (13:40) 7.22 (13:40) 0 0 0 0 0
18-06-2019 25.4 (14:30) 17.5 (00:00) 21.4 9.17 (15:20) 7.5 (15:20) 0 0 0 0 0
17-06-2019 25.2 (11:50) 16.3 (00:00) 20.8 11.39 (15:20) 9.17 (16:50) 0 0 0 0 0
16-06-2019 24.4 (13:50) 16.1 (00:00) 20.3 12.5 (17:30) 9.44 (17:40) 0 0 0 0 0
15-06-2019 23.6 (11:00) 16.9 (00:00) 20.3 10.28 (07:50) 6.94 (18:50) 0 0 0 0 0
14-06-2019 25.7 (11:50) 18 (00:00) 21.9 16.39 (14:50) 12.22 (14:40) 0 0 0 0 0
13-06-2019 21.5 (17:20) 13 (00:00) 17.3 11.67 (09:00) 8.06 (19:40) 0 0 0 0 0
12-06-2019 20.3 (13:40) 11.4 (00:00) 15.8 8.89 (12:30) 6.94 (13:00) 0 0 0 0 0
11-06-2019 20.4 (00:00) 13.5 (00:00) 16.9 14.44 (13:40) 7.22 (13:00) 37.2 0.5 20.4 13.9 2.4
10-06-2019 26.8 (11:20) 17.1 (00:00) 21.9 11.67 (18:20) 9.44 (15:00) 0 0 0 0 0
09-06-2019 27.5 (13:30) 19.2 (00:00) 23.4 12.5 (11:30) 8.33 (14:20) 0 0 0 0 0
08-06-2019 23.2 (16:10) 15.6 (00:00) 19.4 11.67 (15:20) 9.17 (15:20) 0 0 0 0 0
07-06-2019 24.5 (18:00) 17.7 (00:00) 21.1 15 (21:40) 12.22 (21:50) 0 0 0 0 0
06-06-2019 21.8 (13:10) 17 (00:00) 19.4 8.89 (11:50) 5.83 (13:20) 0 0 0 0 0
05-06-2019 26.6 (17:00) 16.5 (00:00) 21.6 16.94 (16:30) 11.94 (16:30) 0 0 0 0 0
04-06-2019 23.9 (16:00) 16.4 (00:00) 20.1 9.72 (16:50) 5.28 (13:30) 0 0 0 0 0
03-06-2019 24.3 (15:20) 16.6 (00:00) 20.4 9.72 (11:20) 7.22 (15:00) 0 0 0 0 0
02-06-2019 24 (15:10) 16.8 (00:00) 20.4 12.78 (14:50) 10.56 (14:00) 0 0 0 0 0
01-06-2019 23.9 (16:30) 16.7 (00:00) 20.3 12.5 (13:20) 10 (14:50) 0 0 0 0 0
31-05-2019 24.4 (10:40) 15.2 (00:00) 19.8 9.72 (18:20) 7.78 (18:20) 0 0 0 0 0
30-05-2019 21.5 (17:10) 13.7 (00:00) 17.6 8.33 (18:20) 6.67 (18:40) 0 0 0 0 0
29-05-2019 21 (14:40) 15.1 (00:00) 18.1 10.28 (15:50) 7.5 (14:10) 0 0 0 0 0
28-05-2019 20.8 (11:10) 15.8 (00:00) 18.3 9.17 (15:00) 6.11 (13:30) 1 1 0 0 0

Gráficas

Temp. máximas Temp. mínimas Temp. medias Precipitaciones Rachas de viento máximas Velocidades máximas media en intervalos de 10 minutos

Datos horarios

Fecha y hora oficial Temperatura (ºC) Velocidad del viento (km/h) Dirección del viento Racha (km/h) Dirección de racha Precipitación (mm) Presión (hPa) Tendencia (hPa) Humedad (%)
2019-06-26 23:00:00 25.4 15 Nordeste 24 Nordeste 0 1020.3 1 67
2019-06-26 22:00:00 25.5 16 Este 32 Nordeste 0 1019.8 0.9 68
2019-06-26 21:00:00 26.6 21 Este 33 Norte 0 1019.5 0.3 60
2019-06-26 20:00:00 27.4 23 Nordeste 45 Este 0 1019.3 -0.2 58
2019-06-26 19:00:00 27.8 25 Este 37 Este 0 1018.9 -1 58
2019-06-26 18:00:00 28.5 29 Este 39 Este 0 1019.2 -1 55
2019-06-26 17:00:00 29.5 27 Este 39 Este 0 1019.5 -0.8 48
2019-06-26 16:00:00 29.1 30 Este 39 Este 0 1019.9 -0.6 50
2019-06-26 15:00:00 29.2 32 Este 42 Este 0 1020.2 0.3 52
2019-06-26 14:00:00 29.2 29 Este 39 Este 0 1020.3 0.7 49
2019-06-26 13:00:00 28.8 30 Este 41 Este 0 1020.5 1.3 52
2019-06-26 12:00:00 29.4 25 Este 39 Este 0 1019.9 1 49
2019-06-26 11:00:00 31.3 32 Este 45 Este 0 1019.6 0.9 34
2019-06-26 10:00:00 30.3 31 Este 46 Este 0 1019.2 0.9 38
2019-06-26 09:00:00 29.7 35 Este 48 Este 0 1018.9 0.8 37
2019-06-26 08:00:00 27.6 31 Este 45 Nordeste 0 1018.7 0.8 44
2019-06-26 07:00:00 26.5 31 Este 42 Este 0 1018.3 0.2 46
2019-06-26 06:00:00 26 30 Este 39 Este 0 1018.1 -0.4 48
2019-06-26 05:00:00 25.6 35 Este 45 Este 0 1017.9 -0.8 53
2019-06-26 04:00:00 25.3 29 Este 41 Este 0 1018.1 -0.7 57
2019-06-26 03:00:00 25 27 Este 37 Este 0 1018.5 -0.3 60
2019-06-26 02:00:00 24.4 27 Este 39 Este 0 1018.7 0.4 67
2019-06-26 01:00:00 24.3 24 Este 37 Este 0 1018.8 1.1 71
2019-06-26 00:00:00 24.4 26 Este 35 Este 0 1018.8 1.4 72
2019-06-25 23:00:00 24.3 28 Este 37 Este 0 1018.3 1.2 74
2019-06-25 22:00:00 23.8 27 Este 35 Este 0 1017.7 0.9 81
2019-06-25 21:00:00 24.2 26 Este 37 Este 0 1017.4 0.6 82
2019-06-25 20:00:00 24.9 30 Este 39 Este 0 1017.1 0.3 79
2019-06-25 19:00:00 25.4 30 Este 39 Este 0 1016.8 -0.3 77
2019-06-25 18:00:00 26.2 31 Este 42 Este 0 1016.8 -0.2 71
2019-06-25 17:00:00 26.9 32 Este 41 Este 0 1016.8 -0.5 66
2019-06-25 16:00:00 27 31 Este 37 Este 0 1017.1 -0.3 65
2019-06-25 15:00:00 27.8 26 Este 39 Este 0 1017 -0.2 60
2019-06-25 14:00:00 27.8 31 Este 39 Este 0 1017.3 0 58
2019-06-25 13:00:00 27.7 27 Este 42 Este 0 1017.4 0 55
2019-06-25 12:00:00 27.1 32 Este 52 Este 0 1017.2 0.5 60
2019-06-25 11:00:00 26.1 29 Este 42 Este 0 1017.3 1.5 64
2019-06-25 10:00:00 24.9 30 Este 41 Este 0 1017.4 2.2 68
2019-06-25 09:00:00 24.2 27 Este 35 Este 0 1016.7 1.6 71
2019-06-25 08:00:00 23.4 29 Este 39 Este 0 1015.8 1 75
2019-06-25 07:00:00 22.8 25 Este 33 Este 0 1015.2 0 79
2019-06-25 06:00:00 23 25 Este 35 Este 0 1015.1 -0.4 77
2019-06-25 05:00:00 23.5 27 Este 35 Este 0 1014.8 -0.9 75
2019-06-25 04:00:00 23.5 27 Este 33 Este 0 1015.2 -0.6 76
2019-06-25 03:00:00 23.3 24 Este 33 Este 0 1015.5 -0.5 76
2019-06-25 02:00:00 23 24 Este 33 Este 0 1015.7 0.1 77
2019-06-25 01:00:00 22.8 24 Este 32 Este 0 1015.8 1.2 80
2019-06-25 00:00:00 22.6 24 Este 35 Este 0 1016 1.7 84
2019-06-24 23:00:00 22.6 27 Este 37 Este 0 1015.6 1.6 85
2019-06-24 22:00:00 22.6 26 Este 37 Este 0 1014.6 0.6 86
2019-06-24 21:00:00 22.9 30 Este 45 Nordeste 0 1014.3 0.2 83
2019-06-24 20:00:00 23.8 32 Este 45 Este 0 1014 -0.4 77
2019-06-24 19:00:00 24.8 35 Este 45 Este 0 1014 -0.8 70
2019-06-24 18:00:00 26.3 32 Este 41 Este 0 1014.1 -0.7 59
2019-06-24 17:00:00 27.9 33 Este 42 Este 0 1014.4 -1.1 34
2019-06-24 16:00:00 27.7 31 Este 45 Este 0 1014.8 -1.1 47
2019-06-24 15:00:00 27.9 36 Este 46 Este 0 1014.8 -1.4 46
2019-06-24 14:00:00 27.5 31 Este 45 Este 0 1015.5 -0.7 49
2019-06-24 13:00:00 26.3 33 Este 45 Este 0 1015.9 0.1 55
2019-06-24 12:00:00 25.9 30 Este 39 Este 0 1016.2 1.1 58
2019-06-24 11:00:00 25.2 23 Este 33 Este 0 1016.2 1.7 63
2019-06-24 10:00:00 25.1 26 Este 33 Este 0 1015.8 1.6 63
2019-06-24 09:00:00 24.4 17 Nordeste 37 Norte 0 1015.1 0.8 58
2019-06-24 08:00:00 21.9 16 Norte 42 Norte 0 1014.5 -0.2 64
2019-06-24 07:00:00 20.7 20 Norte 26 Norte 0 1014.2 -0.6 72
2019-06-24 06:00:00 21 16 Norte 24 Norte 0 1014.3 -1.4 75
2019-06-24 05:00:00 21.3 15 Norte 24 Norte 0 1014.7 -1.3 79
2019-06-24 04:00:00 21 17 Norte 22 Norte 0 1014.8 -1.3 80
2019-06-24 03:00:00 20.5 13 Norte -- -- 0 1015.7 0.1 82
2019-06-24 02:00:00 21.6 6 Este 11 Este 0 1016 0.8 92
2019-06-24 01:00:00 22 7 Este 13 Este 0 1016.1 1.9 91
2019-06-24 00:00:00 22.9 3 Sur 9 Sur 0 1015.6 1.9 83
2019-06-23 23:00:00 22.9 8 Sudeste 15 Sudeste 0 1015.2 1.8 87
2019-06-23 22:00:00 23.3 12 Sur 22 Sudoeste 0 1014.2 1.1 80
2019-06-23 21:00:00 23.9 14 Sudoeste 30 Sudoeste 0 1013.7 0.6 76
2019-06-23 20:00:00 24.6 24 Sudoeste 35 Sudoeste 0 1013.4 -0.2 79
2019-06-23 19:00:00 25.4 26 Sudoeste 35 Sudoeste 0 1013.1 -0.7 74
2019-06-23 18:00:00 26.1 27 Sudoeste 41 Oeste 0 1013.1 -0.8 65
2019-06-23 17:00:00 26 32 Sudoeste 41 Oeste 0 1013.6 -0.5 70
2019-06-23 16:00:00 25.7 32 Sudoeste 41 Sudoeste 0 1013.8 -0.4 71
2019-06-23 15:00:00 25.1 30 Sudoeste 37 Sudoeste 0 1013.9 -0.5 72
2019-06-23 14:00:00 25 23 Sudoeste 33 Sudoeste 0 1014.1 -0.8 77
2019-06-23 13:00:00 25.3 23 Sudoeste 33 Sudoeste 0 1014.2 -1 73
2019-06-23 12:00:00 25 22 Sudoeste 30 Sudoeste 0 1014.4 -0.5 74
2019-06-23 11:00:00 24.3 17 Sudoeste 24 Sudoeste 0 1014.9 0.3 77
2019-06-23 10:00:00 23.6 14 Sudoeste 21 Sudoeste 0 1015.2 0.7 79
2019-06-23 09:00:00 22.6 8 Oeste 13 Oeste 0 1014.9 0.5 85
2019-06-23 08:00:00 21.7 6 Oeste 9 Oeste 0 1014.6 0.3 88
2019-06-23 07:00:00 20.6 7 Oeste 15 Oeste 0 1014.5 0.2 92
2019-06-23 06:00:00 21.1 7 Sudoeste 13 Sudoeste 0 1014.4 -0.2 92
2019-06-23 05:00:00 20.7 0 Calma 5 Este 0 1014.3 -0.8 83
2019-06-23 04:00:00 20.1 3 Norte 11 Noroeste 0 1014.3 -0.9 87
2019-06-23 03:00:00 21.2 7 Sudoeste 15 Oeste 0 1014.6 -0.5 91
2019-06-23 02:00:00 20.9 9 Oeste 13 Oeste 0 1015.1 0 91
2019-06-23 01:00:00 21.6 8 Sudoeste 17 Sudoeste 0 1015.2 0.5 88
2019-06-23 00:00:00 22 13 Sudoeste 17 Sudoeste 0 1015.1 0.6 86
2019-06-22 23:00:00 22 12 Sudoeste 22 Oeste 0 1015.1 1.2 82
2019-06-22 22:00:00 22.4 14 Sudoeste 26 Oeste 0 1014.7 0.9 80
2019-06-22 21:00:00 23 18 Sudoeste 39 Oeste 0 1014.5 0.6 77
2019-06-22 20:00:00 23.8 30 Oeste 50 Oeste 0 1013.9 -0.4 76
2019-06-22 19:00:00 24.5 38 Oeste 50 Oeste 0 1013.8 -0.8 72
2019-06-22 18:00:00 25.1 36 Oeste 48 Oeste 0 1013.9 -1 71
2019-06-22 17:00:00 25.6 31 Sudoeste 45 Oeste 0 1014.3 -0.9 67
2019-06-22 16:00:00 26 33 Sudoeste 46 Oeste 0 1014.6 -0.8 65
2019-06-22 15:00:00 25.8 35 Sudoeste 45 Sudoeste 0 1014.9 -0.8 57
2019-06-22 14:00:00 25.4 28 Sudoeste 42 Sudoeste 0 1015.2 -0.6 56
2019-06-22 13:00:00 25.3 27 Sudoeste 37 Sudoeste 0 1015.4 -0.6 56
2019-06-22 12:00:00 24.8 27 Sudoeste 35 Sudoeste 0 1015.7 -0.3 62
2019-06-22 11:00:00 24.9 23 Sudoeste 32 Sudoeste 0 1015.8 -0.1 57
2019-06-22 10:00:00 25 18 Sudoeste 26 Sudoeste 0 1016 0.4 56
2019-06-22 09:00:00 23.6 7 Norte 11 Nordeste 0 1016 0.5 63
2019-06-22 08:00:00 21.5 9 Norte 11 Norte 0 1015.9 0.4 73
2019-06-22 07:00:00 19.8 5 Norte 8 Norte 0 1015.6 -0.3 78
2019-06-22 06:00:00 19.3 0 Calma 8 Norte 0 1015.5 -0.4 78
2019-06-22 05:00:00 20.2 3 Oeste 8 Norte 0 1015.5 -0.4 77
2019-06-22 04:00:00 20.6 8 Norte 11 Norte 0 1015.9 0.3 75
2019-06-22 03:00:00 20.9 3 Norte 9 Este 0 1015.9 0.1 75
2019-06-22 02:00:00 20.8 4 Norte 9 Norte 0 1015.9 0.2 76
2019-06-22 01:00:00 20.7 8 Noroeste 9 Oeste 0 1015.6 0.8 79
2019-06-22 00:00:00 21 8 Oeste 9 Oeste 0 1015.8 1.1 77
2019-06-21 23:00:00 21.9 8 Oeste 11 Norte 0 1015.7 1.1 72
2019-06-21 22:00:00 22.6 5 Este 13 Sur 0 1014.8 0.6 68
2019-06-21 21:00:00 23 5 Sudeste 13 Sudeste 0 1014.7 0.8 68
2019-06-21 20:00:00 22.9 5 Sur 17 Sudeste 0 1014.6 0.5 69
2019-06-21 19:00:00 23.4 6 Sur 18 Sudeste 0 1014.2 0.1 69
2019-06-21 18:00:00 24.5 13 Este 28 Sudoeste 0 1013.9 -0.5 65
2019-06-21 17:00:00 24.4 14 Sudeste 30 Sudeste 0 1014.1 -0.3 65
2019-06-21 16:00:00 24.4 16 Sudeste 26 Sudeste 0 1014.1 -0.5 67
2019-06-21 15:00:00 25.3 11 Sur 22 Sudeste 0 1014.4 0.1 62
2019-06-21 14:00:00 25.4 10 Sudoeste 24 Sudoeste 0 1014.4 0.3 62
2019-06-21 13:00:00 25.1 15 Sudoeste 26 Sudoeste 0 1014.6 0.8 67
2019-06-21 12:00:00 25 15 Sur 22 Este 0 1014.3 0.6 63
2019-06-21 11:00:00 26.3 17 Este 32 Este 0 1014.1 0.6 48
2019-06-21 10:00:00 25.3 9 Norte 24 Norte 0 1013.8 0.6 62
2019-06-21 09:00:00 23.1 17 Norte 24 Norte 0 1013.7 0.2 70
2019-06-21 08:00:00 21.1 16 Norte 22 Norte 0 1013.5 -0.3 80
2019-06-21 07:00:00 20.9 12 Nordeste 21 Este 0 1013.2 -0.4 83
2019-06-21 06:00:00 20.1 9 Norte 15 Nordeste 0 1013.5 -0.2 84
2019-06-21 05:00:00 20.4 11 Nordeste 13 Nordeste 0 1013.8 0.1 85
2019-06-21 04:00:00 20.3 10 Nordeste 13 Este 0 1013.6 0 86
2019-06-21 03:00:00 20.5 9 Este 11 Este 0 1013.7 0 82
2019-06-21 02:00:00 20.7 7 Este 15 Este 0 1013.7 0 78
2019-06-21 01:00:00 21 10 Este 13 Este 0 1013.6 1.1 79
2019-06-21 00:00:00 21.5 11 Este 21 Sudeste 0 1013.7 0.8 77
2019-06-20 23:00:00 21.7 17 Nordeste 28 Nordeste 0 1013.7 1.2 74
2019-06-20 22:00:00 21.6 17 Este 37 Nordeste 0 1012.5 0.1 78
2019-06-20 21:00:00 22.1 20 Este 33 Este 0 1012.9 0 75
2019-06-20 20:00:00 22.5 21 Este 45 Sudeste 0 1012.5 -0.7 73
2019-06-20 19:00:00 22.9 14 Este 28 Sudeste 0 1012.4 -1.1 74
2019-06-20 18:00:00 22.8 17 Este 28 Este 0 1012.9 -0.9 76
2019-06-20 17:00:00 23.8 17 Sudeste 33 Este 0 1013.2 -0.7 70
2019-06-20 16:00:00 24.3 21 Este 33 Este 0 1013.5 -0.3 66
2019-06-20 15:00:00 24.3 19 Este 33 Este 0 1013.8 0.3 67
2019-06-20 14:00:00 24.2 23 Sudeste 32 Sudeste 0 1013.9 0.2 68
2019-06-20 13:00:00 24.1 23 Este 33 Sudeste 0 1013.8 -0.1 70
2019-06-20 12:00:00 23.3 23 Este 35 Este 0 1013.5 -0.6 76
2019-06-20 11:00:00 22.3 26 Este 39 Nordeste 0 1013.7 0.1 77
2019-06-20 10:00:00 22.1 20 Este 37 Este 0 1013.9 0.8 79
2019-06-20 09:00:00 22.2 11 Este 18 Nordeste 0 1014.1 1.5 83
2019-06-20 08:00:00 21.2 8 Sudeste 13 Sur 0 1013.6 1.4 89
2019-06-20 07:00:00 20.4 5 Sudeste 13 Nordeste 0 1013.1 0.9 86
2019-06-20 06:00:00 19.8 13 Nordeste 15 Nordeste 0 1012.6 0.1 88
2019-06-20 05:00:00 20.1 11 Norte 13 Norte 0 1012.2 -0.4 87
2019-06-20 04:00:00 20.6 2 Este 9 Norte 0 1012.2 -0.7 87
2019-06-20 03:00:00 20.3 4 Noroeste 8 Norte 0 1012.5 -0.2 87
2019-06-20 02:00:00 20.7 2 Oeste 5 Oeste 0 1012.6 0 87
2019-06-20 01:00:00 21.1 6 Sudeste 11 Sudeste 0 1012.9 0.9 85
2019-06-20 00:00:00 21.3 8 Sudeste 13 Este 0 1012.7 0.9 84
2019-06-19 23:00:00 21.5 5 Sudeste 13 Sudeste 0 1012.6 1.1 84
2019-06-19 22:00:00 21.6 6 Sur 13 Sudoeste 0 1012 0.4 83
2019-06-19 21:00:00 22.5 10 Sudoeste 17 Sudoeste 0 1011.8 -0.1 80
2019-06-19 20:00:00 22.8 13 Sudoeste 22 Sudoeste 0 1011.5 -0.6 79
2019-06-19 19:00:00 23.3 14 Sudoeste 22 Sudoeste 0 1011.6 -0.8 77
2019-06-19 18:00:00 23.9 14 Sudoeste 28 Sudoeste 0 1011.9 -0.8 74
2019-06-19 17:00:00 24.3 17 Sudoeste 28 Sudoeste 0 1012.1 -0.8 76
2019-06-19 16:00:00 24.4 16 Sudoeste 26 Sudoeste 0 1012.4 -0.5 76
2019-06-19 15:00:00 24.6 19 Sudoeste 32 Sudoeste 0 1012.7 -- 76
2019-06-19 14:00:00 24.2 23 Sudoeste 33 Sudoeste 0 1012.9 0.1 77
2019-06-19 13:00:00 24 21 Sudoeste -- -- -- 1012.9 -0.1 74
2019-06-19 12:00:00 -- -- -- -- -- -- -- -- --
2019-06-19 11:00:00 23.4 23 Sudoeste 30 Sudoeste 0 1012.8 -0.1 71
2019-06-19 10:00:00 22.7 20 Sudoeste 24 Oeste 0 1013 0.3 75
2019-06-19 09:00:00 21.9 9 Sudoeste 15 Sudoeste 0 1013.1 0.3 76
2019-06-19 08:00:00 18.9 4 Norte 11 Norte 0 1012.9 0.2 70
2019-06-19 07:00:00 17.8 4 Norte 8 Norte 0 1012.7 -0.3 72
2019-06-19 06:00:00 17.6 4 Norte 13 Norte 0 1012.8 -0.4 72
2019-06-19 05:00:00 17.6 7 Norte 9 Norte 0 1012.7 -0.8 72
2019-06-19 04:00:00 17.7 4 Norte 8 Norte 0 1013 -1 72
2019-06-19 03:00:00 18.2 3 Norte 9 Norte 0 1013.2 -1 72
2019-06-19 02:00:00 19.1 5 Norte -- -- 0 1013.5 -0.6 71
2019-06-19 01:00:00 20.2 6 Oeste 8 Oeste 0 1014 0.3 84
2019-06-19 00:00:00 20.8 6 Sudoeste 11 Sudoeste 0 1014.2 0.7 84
2019-06-18 23:00:00 21 9 Sudoeste 17 Sudoeste 0 1014.1 0.8 82
2019-06-18 22:00:00 21.5 12 Sudoeste 21 Sudoeste 0 1013.7 0.2 80
2019-06-18 21:00:00 22.7 16 Sudoeste 22 Sudoeste 0 1013.5 -0.4 74
2019-06-18 20:00:00 23.6 15 Sudoeste 24 Sudoeste 0 1013.3 -1 71
2019-06-18 19:00:00 23.9 19 Sudoeste 28 Sudoeste 0 1013.5 -1.1 68
2019-06-18 18:00:00 24 23 Sudoeste 28 Sudoeste 0 1013.9 -0.9 70
2019-06-18 17:00:00 24.2 21 Sudoeste 30 Sudoeste 0 1014.3 -0.6 71
2019-06-18 16:00:00 24.3 24 Sudoeste 33 Sudoeste 0 1014.6 -- 65
2019-06-18 15:00:00 24.7 25 Sudoeste 32 Sudoeste 0 1014.8 -0.2 55
2019-06-18 14:00:00 24.8 23 Sudoeste 32 Sudoeste 0 1014.9 0.1 55
2019-06-18 13:00:00 -- 21 Sudoeste 30 Sudoeste 0 -- -- --
2019-06-18 12:00:00 24.2 22 Sudoeste 30 Sudoeste 0 1015 0.1 71
2019-06-18 11:00:00 24.6 22 Sudoeste 30 Oeste 0 1014.8 0.1 53
2019-06-18 10:00:00 24 14 Sudoeste 18 Sudoeste 0 1014.9 0.3 60
2019-06-18 09:00:00 22.8 3 Oeste 13 Noroeste 0 1014.9 0.3 61
2019-06-18 08:00:00 19.9 10 Norte 13 Norte 0 1014.7 -0.1 68
2019-06-18 07:00:00 17.9 5 Norte 13 Norte 0 1014.6 -0.7 77
2019-06-18 06:00:00 17.9 6 Norte 11 Nordeste 0 1014.6 -0.7 76
2019-06-18 05:00:00 17.7 3 Norte 8 Norte 0 1014.8 -1 73
2019-06-18 04:00:00 18 4 Norte 8 Norte 0 1015.3 -0.7 72
2019-06-18 03:00:00 18.4 3 Noroeste 8 Oeste 0 1015.3 -0.8 86
2019-06-18 02:00:00 18.9 7 Oeste 15 Oeste 0 1015.8 -0.1 94
2019-06-18 01:00:00 19.9 11 Sudoeste 15 Sudoeste 0 1016 0.6 93
2019-06-18 00:00:00 19.5 10 Oeste 13 Sudoeste 0 1016.1 1 92
2019-06-17 23:00:00 20.5 13 Sudoeste 18 Sudoeste 0 1015.9 0.9 88
2019-06-17 22:00:00 21 15 Sudoeste 26 Sudoeste 0 1015.4 0.7 85
2019-06-17 21:00:00 22 19 Sudoeste 33 Sudoeste 0 1015.1 0.3 78
2019-06-17 20:00:00 22.6 26 Sudoeste 35 Sudoeste 0 1015 -0.3 78
2019-06-17 19:00:00 23.4 28 Sudoeste 37 Sudoeste 0 1014.7 -0.9 71
2019-06-17 18:00:00 23.4 27 Sudoeste 39 Oeste 0 1014.8 -1 77
2019-06-17 17:00:00 23.7 31 Sudoeste 41 Oeste 0 1015.3 -0.7 72
2019-06-17 16:00:00 23.5 31 Sudoeste 41 Sudoeste 0 1015.6 -0.4 74
2019-06-17 15:00:00 23.7 29 Sudoeste 37 Sudoeste 0 1015.8 -0.3 75
2019-06-17 14:00:00 23.6 24 Sudoeste 32 Sudoeste 0 1016 -0.4 72
2019-06-17 13:00:00 24.1 22 Sudoeste 28 Sudoeste 0 1016 -0.7 66
2019-06-17 12:00:00 24.8 13 Sudoeste 17 Sudoeste 0 1016.1 -0.8 64
2019-06-17 11:00:00 24.7 10 Sudoeste 15 Sudoeste 0 1016.4 -0.5 64
2019-06-17 10:00:00 23.4 5 Oeste 11 Oeste 0 1016.7 0.1 69
2019-06-17 09:00:00 21.2 3 Norte 13 Norte 0 1016.9 0.5 67
2019-06-17 08:00:00 19.3 9 Norte 11 Norte 0 1016.9 1 71
2019-06-17 07:00:00 17.1 4 Noroeste 17 Sudoeste 0 1016.6 0.2 76
2019-06-17 06:00:00 17 10 Noroeste 22 Norte 0 1016.4 -0.3 76
2019-06-17 05:00:00 17.4 15 Norte 21 Norte 0 1015.9 -1.2 74
2019-06-17 04:00:00 17.5 12 Norte 15 Norte 0 1016.4 -0.8 72
2019-06-17 03:00:00 17.7 11 Oeste 13 Oeste 0 1016.7 -0.8 80
2019-06-17 02:00:00 18 2 Noroeste 9 Oeste 0 1017.1 -0.7 67
2019-06-17 01:00:00 18.2 6 Oeste 11 Oeste 0 1017.2 -0.1 70
2019-06-17 00:00:00 19.4 8 Oeste 15 Oeste 0 1017.5 0.5 73
2019-06-16 23:00:00 20.4 11 Oeste 24 Oeste 0 1017.8 0.5 70
2019-06-16 22:00:00 20.6 17 Oeste 24 Oeste 0 1017.3 0.3 71
2019-06-16 21:00:00 20.8 17 Oeste 33 Oeste 0 1017 -0.4 78
2019-06-16 20:00:00 21.6 24 Oeste 35 Sudoeste 0 1017.3 -0.4 73
2019-06-16 19:00:00 22.1 22 Oeste 37 Sudoeste 0 1017 -1.2 71
2019-06-16 18:00:00 22.8 28 Oeste 45 Oeste 0 1017.4 -1.4 67
2019-06-16 17:00:00 23.6 30 Oeste 39 Oeste 0 1017.7 -1.6 66
2019-06-16 16:00:00 23.4 27 Sudoeste 35 Sudoeste 0 1018.2 -1.7 69
2019-06-16 15:00:00 23.7 25 Sudoeste 37 Sudoeste 0 1018.8 -1.2 62
2019-06-16 14:00:00 24 28 Sudoeste 37 Sudoeste 0 1019.3 -0.8 59
2019-06-16 13:00:00 23.1 16 Sudoeste 24 Sur 0 1019.9 -0.3 69
2019-06-16 12:00:00 22.9 13 Sur 21 Sur 0 1020 -0.1 63
2019-06-16 11:00:00 22.7 12 Sur 26 Sur 0 1020.1 0.4 63
2019-06-16 10:00:00 22.5 7 Sudeste 15 Sur 0 1020.2 0.9 66
2019-06-16 09:00:00 21.1 8 Nordeste 17 Norte 0 1020.1 0.9 70
2019-06-16 08:00:00 19.2 12 Norte 17 Norte 0 1019.7 0.4 76
2019-06-16 07:00:00 17.3 8 Norte 13 Norte 0 1019.3 -0.4 84
2019-06-16 06:00:00 16.2 6 Norte 11 Norte 0 1019.2 -0.6 87
2019-06-16 05:00:00 17.1 0 Calma 13 Norte 0 1019.3 -0.9 85
2019-06-16 04:00:00 17 4 Noroeste 11 Noroeste 0 1019.7 -0.5 86
2019-06-16 03:00:00 17.4 6 Noroeste 11 Norte 0 1019.8 -0.2 85
2019-06-16 02:00:00 17.8 8 Noroeste 11 Noroeste 0 1020.2 0.6 84
2019-06-16 01:00:00 18.3 6 Oeste 8 Oeste 0 1020.2 1.5 84
2019-06-16 00:00:00 19 6 Oeste 9 Este 0 1020 1.9 83
2019-06-15 23:00:00 19.6 9 Este 28 Sudeste 0 1019.6 2 80
2019-06-15 22:00:00 19.8 11 Este 17 Este 0 1018.7 1.8 79
2019-06-15 21:00:00 20.4 13 Este 24 Este 0 1018.1 1.5 77
2019-06-15 20:00:00 21 18 Este 33 Este 0 1017.6 1 74
2019-06-15 19:00:00 21.6 25 Este 33 Este 0 1016.9 0.5 73
2019-06-15 18:00:00 21.5 23 Este 32 Sudeste 0 1016.6 0.5 79
2019-06-15 17:00:00 21.5 21 Este 30 Este 0 1016.6 0.2 80
2019-06-15 16:00:00 22 18 Este 28 Sudeste 0 1016.4 0 79
2019-06-15 15:00:00 22.9 18 Este 26 Este 0 1016.1 0.1 73
2019-06-15 14:00:00 22.7 18 Sudeste 26 Sudeste 0 1016.4 0.7 72
2019-06-15 13:00:00 22.5 13 Sudeste 24 Sudeste 0 1016.4 0.9 74
2019-06-15 12:00:00 22.6 14 Sudeste 26 Sudoeste 0 1016 0.7 76
2019-06-15 11:00:00 23.3 16 Este 24 Este 0 1015.7 0.9 70
2019-06-15 10:00:00 23 8 Nordeste 18 Nordeste 0 1015.5 1.4 72
2019-06-15 09:00:00 21.1 6 Nordeste 30 Norte 0 1015.3 1.8 71
2019-06-15 08:00:00 18.1 14 Norte 37 Norte 0 1014.8 1.5 78
2019-06-15 07:00:00 17.5 10 Norte 21 Norte 0 1014.1 0.9 82
2019-06-15 06:00:00 17.3 15 Norte 22 Norte 0 1013.5 0.4 80
2019-06-15 05:00:00 17.2 13 Norte 17 Norte 0 1013.3 0.4 80
2019-06-15 04:00:00 17.4 4 Norte 5 Norte 0 1013.2 -0.1 80
2019-06-15 03:00:00 18.8 3 Oeste 5 Oeste 0 1013.1 -0.1 80
2019-06-15 02:00:00 19.1 0 Calma 8 Norte 0 1012.9 0.2 76
2019-06-15 01:00:00 19.7 5 Oeste 18 Sudoeste 0 1013.3 1.7 77
2019-06-15 00:00:00 20.2 13 Sudoeste 17 Sudoeste 0 1013.2 2.1 73
2019-06-14 23:00:00 20.6 15 Sudoeste 24 Sudoeste 0 1012.7 2.1 68
2019-06-14 22:00:00 20.8 22 Oeste 35 Oeste 0 1011.6 1.3 62
2019-06-14 21:00:00 21.5 26 Sudoeste 33 Oeste 0 1011.1 1.1 65
2019-06-14 20:00:00 22 26 Oeste 39 Sudoeste 0 1010.6 1.2 71
2019-06-14 19:00:00 22.4 31 Oeste 48 Oeste 0 1010.3 0.9 71
2019-06-14 18:00:00 23.1 33 Oeste 52 Oeste 0 1010 0.6 67
2019-06-14 17:00:00 23.3 36 Oeste 50 Oeste 0 1009.4 0.7 66
2019-06-14 16:00:00 23 38 Oeste 58 Oeste 0 1009.4 0.1 69
2019-06-14 15:00:00 23.5 44 Oeste 59 Oeste 0 1009.4 1.6 65
2019-06-14 14:00:00 24.4 39 Oeste 52 Oeste 0 1008.7 0.1 51
2019-06-14 13:00:00 22.4 19 Sudoeste 30 Sudoeste 0 1009.3 1.4 67
2019-06-14 12:00:00 25.5 10 Sur 24 Oeste 0 1007.8 -0.5 48
2019-06-14 11:00:00 23.4 17 Oeste 30 Norte 0 1008.6 0.7 55
2019-06-14 10:00:00 21.4 12 Nordeste 42 Norte 0 1007.9 0.9 53
2019-06-14 09:00:00 21.9 10 Norte 15 Norte 0 1008.3 1.4 52
2019-06-14 08:00:00 20.8 4 Sudoeste 15 Norte 0 1007.9 0.3 51
2019-06-14 07:00:00 19.1 12 Nordeste 18 Nordeste 0 1007 -1.5 51
2019-06-14 06:00:00 18.8 16 Norte 22 Norte 0 1006.9 -2.6 48
2019-06-14 05:00:00 18.8 15 Norte 26 Norte 0 1007.6 -3.3 45
2019-06-14 04:00:00 18.9 20 Norte 28 Norte 0 1008.5 -3.5 41
2019-06-14 03:00:00 18.5 20 Norte 26 Norte 0 1009.5 -3 41
2019-06-14 02:00:00 18.1 15 Norte 18 Norte 0 1010.9 -1.5 42
2019-06-14 01:00:00 18.5 14 Norte 24 Nordeste 0 1012 -0.4 44
2019-06-14 00:00:00 19.4 18 Este 28 Este 0 1012.5 0.6 59
2019-06-13 23:00:00 19.6 22 Este 32 Nordeste 0 1012.4 0.7 55
2019-06-13 22:00:00 19.5 22 Este 32 Nordeste 0 1012.4 0.4 60
2019-06-13 21:00:00 19.8 24 Nordeste 37 Este 0 1011.9 -0.6 55
2019-06-13 20:00:00 19.7 28 Este 41 Nordeste 0 1011.7 -1.4 63
2019-06-13 19:00:00 20 27 Este 35 Este 0 1012 -1.4 67
2019-06-13 18:00:00 20.9 25 Este 32 Este 0 1012.5 -1.4 62
2019-06-13 17:00:00 21.1 23 Este 32 Este 0 1013.1 -1 57
2019-06-13 16:00:00 21 26 Este 33 Este 0 1013.4 -1 60
2019-06-13 15:00:00 20.3 24 Sudeste 33 Este 0 1013.9 -1.1 69
2019-06-13 14:00:00 20.9 22 Sudeste 30 Este 0 1014.1 -0.7 68
2019-06-13 13:00:00 20.8 18 Sudeste 26 Sudeste 0 1014.4 -0.6 65
2019-06-13 12:00:00 20.5 17 Sudeste 24 Sudeste 0 1015 0.2 67
2019-06-13 11:00:00 20.8 15 Sudeste 32 Sudeste 0 1014.8 0.1 60
2019-06-13 10:00:00 20.1 9 Nordeste 35 Norte 0 1015 0.6 62
2019-06-13 09:00:00 17.2 18 Norte 42 Norte 0 1014.8 0.4 68
2019-06-13 08:00:00 15.2 16 Norte 22 Norte 0 1014.7 0.1 77
2019-06-13 07:00:00 13.7 17 Norte 28 Norte 0 1014.4 -0.2 81
2019-06-13 06:00:00 13.3 17 Norte 22 Norte 0 1014.4 -0.5 86
2019-06-13 05:00:00 13.9 13 Norte 18 Norte 0 1014.6 -0.4 85
2019-06-13 04:00:00 14.4 14 Norte 18 Norte 0 1014.6 -0.7 85
2019-06-13 03:00:00 14.6 14 Norte 18 Norte 0 1014.9 -0.4 84
2019-06-13 02:00:00 15.2 11 Norte 17 Norte 0 1015 -0.5 81
2019-06-13 01:00:00 16 10 Norte 13 Norte 0 1015.3 0.4 79
2019-06-13 00:00:00 16.7 5 Norte 9 Norte 0 1015.3 0.8 76
2019-06-12 23:00:00 17.4 4 Oeste 9 Sudoeste 0 1015.5 1.2 76
2019-06-12 22:00:00 17.6 7 Oeste 15 Oeste 0 1014.9 0.9 76
2019-06-12 21:00:00 19.1 12 Oeste 24 Sudoeste 0 1014.5 0.3 69
2019-06-12 20:00:00 19.8 18 Sudoeste 28 Sudoeste 0 1014.3 0 66
2019-06-12 19:00:00 19.9 21 Sudoeste 28 Sudoeste 0 1014 -0.5 64
2019-06-12 18:00:00 20 22 Sudoeste 32 Sudoeste 0 1014.2 -0.6 62
2019-06-12 17:00:00 20.1 23 Sudoeste 32 Sudoeste 0 1014.3 -0.9 60
2019-06-12 16:00:00 20 21 Sudoeste 32 Sudoeste 0 1014.5 -0.8 59
2019-06-12 15:00:00 20.1 20 Sudoeste 32 Sudoeste 0 1014.8 -0.8 57
2019-06-12 14:00:00 20 21 Sudoeste 32 Sudoeste 0 1015.2 -0.3 59
2019-06-12 13:00:00 19.4 25 Sudoeste 32 Sudoeste 0 1015.3 -0.2 62
2019-06-12 12:00:00 19 19 Sudoeste 28 Sudoeste 0 1015.6 0.4 68
2019-06-12 11:00:00 18.3 13 Sur 17 Sur 0 1015.5 0.8 72
2019-06-12 10:00:00 17.7 4 Noroeste 17 Norte 0 1015.5 1.2 79
2019-06-12 09:00:00 15.1 13 Norte 21 Norte 0 1015.2 1.3 89
2019-06-12 08:00:00 13.2 14 Norte 22 Norte 0 1014.7 1 94
2019-06-12 07:00:00 11.8 14 Norte 21 Norte 0 1014.3 0.3 98
2019-06-12 06:00:00 11.4 16 Norte 21 Norte 0 1013.9 -0.4 98
2019-06-12 05:00:00 11.5 13 Norte 18 Norte 0 1013.7 -0.7 96
2019-06-12 04:00:00 12.3 11 Norte 15 Norte 0 1014 -0.7 96
2019-06-12 03:00:00 12.6 6 Norte 11 Norte 0 1014.3 -0.5 96
2019-06-12 02:00:00 13.1 7 Noroeste -- -- 0 1014.4 -0.1 95
2019-06-12 01:00:00 13.9 3 Norte 11 Noroeste 0 1014.7 1.3 93
2019-06-12 00:00:00 14.8 4 Este 17 Este 0 1014.8 1.3 86
2019-06-11 23:00:00 14.7 11 Este 26 Este 0 1014.5 1.5 90
2019-06-11 22:00:00 14.5 18 Este 37 Este 0 1013.4 0.4 89
2019-06-11 21:00:00 14.5 14 Sudeste 22 Este 0.3 1013.5 1 90
2019-06-11 20:00:00 14.4 15 Este 21 Este 0.4 1013 0.7 92
2019-06-11 19:00:00 14.4 6 Nordeste 22 Norte 1.7 1013 0.5 91
2019-06-11 18:00:00 14.4 9 Nordeste 21 Norte 1.1 1012.5 0.5 93
2019-06-11 17:00:00 14.1 13 Norte 46 Norte 2.4 1012.3 0.3 94
2019-06-11 16:00:00 14.3 10 Norte 33 Noroeste 4.8 1012.5 1.1 92
2019-06-11 15:00:00 14.4 17 Norte 45 Norte 0.8 1012 0.3 92
2019-06-11 14:00:00 14 19 Norte 52 Norte 3.1 1012 0.4 94
2019-06-11 13:00:00 13.7 26 Norte 48 Norte 1.7 1011.4 0.1 94
2019-06-11 12:00:00 14.1 20 Norte 46 Norte 0.7 1011.7 0.5 93
2019-06-11 11:00:00 13.8 19 Norte 42 Norte 9.3 1011.6 0.7 94
2019-06-11 10:00:00 15 13 Norte 35 Norte 4.2 1011.3 0.7 82
2019-06-11 09:00:00 16.1 10 Norte 33 Norte 5.8 1011.2 0.8 77
2019-06-11 08:00:00 16.7 12 Norte 32 Norte 0.4 1010.9 0.1 73
2019-06-11 07:00:00 17 11 Norte 18 Norte 0 1010.6 -0.5 75
2019-06-11 06:00:00 17.8 16 Nordeste 22 Norte 0 1010.4 -1.3 70
2019-06-11 05:00:00 18.9 10 Sudeste 21 Sudeste 0 1010.8 -1.4 89
2019-06-11 04:00:00 19 3 Este 21 Sur 0.5 1011.1 -1.5 86
2019-06-11 03:00:00 19.8 15 Sur 32 Sur 0 1011.7 -0.6 80
2019-06-11 02:00:00 19.8 18 Sudeste 30 Sur 0 1012.2 0 88
2019-06-11 01:00:00 20.1 21 Sudeste 30 Sur 0 1012.6 1.5 85
2019-06-11 00:00:00 20.4 21 Sur 30 Sur 0 1012.3 1.9 83
2019-06-10 23:00:00 21.2 12 Sur 26 Oeste 0 1012.2 2.2 73
2019-06-10 22:00:00 21.7 23 Oeste 32 Oeste 0 1011.1 1.3 57
2019-06-10 21:00:00 21.9 22 Oeste 33 Oeste 0 1010.4 0.4 58
2019-06-10 20:00:00 23 23 Oeste 37 Oeste 0 1010 -0.2 60
2019-06-10 19:00:00 23.7 26 Sudoeste 42 Oeste 0 1009.8 -0.9 57
2019-06-10 18:00:00 24.6 29 Sudoeste 37 Sudoeste 0 1010 -1.1 55
2019-06-10 17:00:00 25.9 27 Sudoeste 39 Oeste 0 1010.2 -1.4 44
2019-06-10 16:00:00 26.2 28 Sudoeste 39 Oeste 0 1010.7 -1.4 47
2019-06-10 15:00:00 25.5 34 Sudoeste 41 Sudoeste 0 1011.1 -1.2 45
2019-06-10 14:00:00 26 21 Sudoeste 30 Sudoeste 0 1011.6 -0.4 44
2019-06-10 13:00:00 25.5 22 Oeste 32 Sudoeste 0 1012.1 -0.6 44
2019-06-10 12:00:00 25.5 17 Sudoeste 22 Sudoeste 0 1012.3 -0.3 44
2019-06-10 11:00:00 25.6 12 Nordeste 28 Norte 0 1012 -0.4 40
2019-06-10 10:00:00 23.6 22 Norte 30 Norte 0 1012.7 0.5 47
2019-06-10 09:00:00 21.6 21 Norte 32 Norte 0 1012.6 0.8 53
2019-06-10 08:00:00 18.9 19 Norte 26 Norte 0 1012.4 0.8 62
2019-06-10 07:00:00 17.3 10 Norte 15 Norte 0 1012.2 0.4 72
2019-06-10 06:00:00 18.1 0 Calma 9 Norte 0 1011.8 -0.7 75
2019-06-10 05:00:00 18.4 5 Sur 11 Sudoeste 0 1011.6 -0.8 79
2019-06-10 04:00:00 19.1 6 Nordeste 13 Sudoeste 0 1011.8 -1.2 89
2019-06-10 03:00:00 18.8 5 Sur 13 Oeste 0 1012.5 -0.9 92
2019-06-10 02:00:00 19.3 11 Oeste 13 Oeste 0 1012.4 -1 89
2019-06-10 01:00:00 19.4 4 Norte 9 Noroeste 0 1013 -0.3 86
2019-06-10 00:00:00 19.5 4 Oeste 13 Norte 0 1013.4 0.3 87
2019-06-09 23:00:00 19.4 7 Noroeste 17 Sur 0 1013.4 0.4 88
2019-06-09 22:00:00 19.8 10 Sudoeste 18 Noroeste 0 1013.3 1.1 86
2019-06-09 21:00:00 20.1 13 Sudoeste 17 Sur 0 1013.1 0.5 83
2019-06-09 20:00:00 20.3 14 Sur 21 Sur 0 1013 0.5 84
2019-06-09 19:00:00 20.5 12 Sur 17 Sur 0 1012.2 0.1 83
2019-06-09 18:00:00 20.8 9 Sudoeste 24 Sudeste 0 1012.6 -1 82
2019-06-09 17:00:00 21.7 12 Sudeste 30 Este 0 1012.5 -0.9 74
2019-06-09 16:00:00 23.7 21 Sudeste 35 Este 0 1012.1 -1.6 62
2019-06-09 15:00:00 23.4 14 Este 39 Sudeste 0 1013.6 -0.6 58
2019-06-09 14:00:00 26.6 16 Sudeste 26 Este 0 1013.4 -1.5 26
2019-06-09 13:00:00 26.2 13 Norte 42 Norte 0 1013.7 -1.4 28
2019-06-09 12:00:00 25.7 20 Norte 45 Norte 0 1014.2 -2.2 28
2019-06-09 11:00:00 24 19 Nordeste 35 Nordeste 0 1014.9 -0.2 27
2019-06-09 10:00:00 21.7 26 Este 41 Nordeste 0 1015.1 0.1 40
2019-06-09 09:00:00 21.1 14 Este 22 Este 0 1016.4 1.5 45
2019-06-09 08:00:00 19.3 16 Norte 24 Norte 0 1015.1 -0.4 42
2019-06-09 07:00:00 19.8 13 Norte 21 Norte 0 1015 -1.7 36
2019-06-09 06:00:00 19.8 17 Norte 26 Norte 0 1014.9 -2.8 34
2019-06-09 05:00:00 19.4 18 Norte 26 Norte 0 1015.5 -3.5 34
2019-06-09 04:00:00 19.6 17 Norte 24 Norte 0 1016.7 -3.1 33
2019-06-09 03:00:00 19.9 18 Norte 26 Norte 0 1017.7 -2.4 33
2019-06-09 02:00:00 20 13 Norte 26 Nordeste 0 1019 -1.7 33
2019-06-09 01:00:00 20.3 10 Norte 11 Norte 0 1019.8 -0.7 36
2019-06-09 00:00:00 21.5 6 Nordeste 15 Nordeste 0 1020.1 -0.2 26
2019-06-08 23:00:00 21.4 12 Este 18 Este 0 1020.7 0.3 31
2019-06-08 22:00:00 21.3 13 Este 22 Este 0 1020.5 -0.1 32
2019-06-08 21:00:00 21 17 Este 33 Nordeste 0 1020.3 -0.6 38
2019-06-08 20:00:00 21.8 21 Este 28 Este 0 1020.4 -1.1 39
2019-06-08 19:00:00 22 23 Este 35 Este 0 1020.6 -1.4 45
2019-06-08 18:00:00 22.6 28 Este 39 Este 0 1020.9 -1.6 40
2019-06-08 17:00:00 22.6 27 Este 39 Este 0 1021.5 -1.2 42
2019-06-08 16:00:00 22.9 29 Este 42 Este 0 1022 -1 44
2019-06-08 15:00:00 22.6 28 Este 39 Este 0 1022.5 -0.6 47
2019-06-08 14:00:00 22.4 31 Este 37 Este 0 1022.7 -0.3 46
2019-06-08 13:00:00 21.7 24 Sudeste 33 Sudeste 0 1023 0.3 53
2019-06-08 12:00:00 21.6 18 Sudeste 28 Sudeste 0 1023.1 0.1 48
2019-06-08 11:00:00 21.2 16 Sudeste 22 Sudeste 0 1023 0.6 54
2019-06-08 10:00:00 21.6 5 Norte 18 Nordeste 0 1022.7 0.9 49
2019-06-08 09:00:00 19.7 10 Norte 32 Norte 0 1023 1.5 53
2019-06-08 08:00:00 18 13 Norte 37 Norte 0 1022.4 0.7 59
2019-06-08 07:00:00 16.2 13 Norte 21 Norte 0 1021.8 0.4 72
2019-06-08 06:00:00 15.7 13 Norte 17 Norte 0 1021.5 0.5 82
2019-06-08 05:00:00 16.9 11 Norte 15 Norte 0 1021.7 1.1 79
2019-06-08 04:00:00 18.2 10 Nordeste 21 Este 0 1021.4 0.9 68
2019-06-08 03:00:00 18.5 13 Este 17 Este 0 1021 1 67
2019-06-08 02:00:00 18.7 14 Este 21 Este 0 1020.6 1.3 70
2019-06-08 01:00:00 19.1 16 Este 24 Este 0 1020.5 2.6 75
2019-06-08 00:00:00 19.1 13 Este 30 Este 0 1020 4 79
2019-06-07 23:00:00 19.4 27 Este 50 Este 0 1019.3 4.2 77
2019-06-07 22:00:00 20.2 40 Este 54 Este 0 1017.9 3.8 74
2019-06-07 21:00:00 22.6 8 Sudoeste 18 Sudoeste 0 1016 2.5 72
2019-06-07 20:00:00 23.6 13 Oeste 32 Sudoeste 0 1015.1 1.9 66
2019-06-07 19:00:00 23.7 26 Sudoeste 35 Sudoeste 0 1014.1 1.3 66
2019-06-07 18:00:00 24.4 30 Sudoeste 45 Sudoeste 0 1013.5 1 62
2019-06-07 17:00:00 23.7 35 Sudoeste 48 Sudoeste 0 1013.2 0.6 71
2019-06-07 16:00:00 23.3 37 Sudoeste 52 Sudoeste 0 1012.8 0.5 73
2019-06-07 15:00:00 23.5 35 Sudoeste 46 Oeste 0 1012.5 0.4 73
2019-06-07 14:00:00 23.5 36 Sudoeste 46 Sudoeste 0 1012.6 0.9 66
2019-06-07 13:00:00 23.4 31 Sudoeste 39 Sudoeste 0 1012.3 0.7 69
2019-06-07 12:00:00 23 27 Sudoeste 37 Sudoeste 0 1012.1 0.5 66
2019-06-07 11:00:00 22.5 21 Sudoeste 32 Oeste 0 1011.7 0.7 71
2019-06-07 10:00:00 21.8 14 Sudoeste 24 Sudoeste 0 1011.6 0.9 78
2019-06-07 09:00:00 20.8 9 Sur 15 Sur 0 1011.6 0.8 83
2019-06-07 08:00:00 20.2 4 Norte 8 Norte 0 1011 0 85
2019-06-07 07:00:00 18.3 6 Nordeste 15 Norte 0 1010.7 -0.6 84
2019-06-07 06:00:00 17.8 7 Norte 11 Nordeste 0 1010.8 -0.4 84
2019-06-07 05:00:00 18.3 6 Este 9 Norte 0 1011 -0.5 83
2019-06-07 04:00:00 17.9 9 Nordeste 11 Nordeste 0 1011.3 -0.8 84
2019-06-07 03:00:00 18.8 10 Nordeste 17 Este 0 1011.2 -1.2 83
2019-06-07 02:00:00 19 15 Este 18 Este 0 1011.5 -1.2 82
2019-06-07 01:00:00 19.1 13 Este 21 Este 0 1012.1 -0.5 81
2019-06-07 00:00:00 18.9 14 Este 18 Este 0 1012.4 -0.6 81
2019-06-06 23:00:00 18.8 14 Este 18 Este 0 1012.7 -0.3 83
2019-06-06 22:00:00 19.2 14 Este 21 Sudeste 0 1012.6 -0.5 81
2019-06-06 21:00:00 19.4 13 Este 21 Sudeste 0 1013 -0.5 79
2019-06-06 20:00:00 20.2 14 Sudeste 21 Sudeste 0 1013 -1 76
2019-06-06 19:00:00 20.6 15 Sur 24 Sudeste 0 1013.1 -1.7 73
2019-06-06 18:00:00 20.9 18 Sur 28 Sudeste 0 1013.5 -1.5 70
2019-06-06 17:00:00 20.8 18 Sur 28 Sur 0 1014 -1.2 70
2019-06-06 16:00:00 21.6 16 Sur 30 Sudeste 0 1014.8 -0.5 67
2019-06-06 15:00:00 21.1 18 Sur 28 Sudeste 0 1015 -0.4 68
2019-06-06 14:00:00 21.5 17 Sur 32 Sudeste 0 1015.2 -0.1 68
2019-06-06 13:00:00 21.4 17 Sur 30 Sudoeste 0 1015.3 0.2 67
2019-06-06 12:00:00 20.8 19 Sur 32 Sur 0 1015.4 0.5 68
2019-06-06 11:00:00 20.7 17 Sur 26 Sur 0 1015.3 0.6 69
2019-06-06 10:00:00 19.8 16 Sur 26 Sudeste 0 1015.1 0.7 73
2019-06-06 09:00:00 19.1 10 Sudeste 17 Sudeste 0 1014.9 1 76
2019-06-06 08:00:00 17.1 10 Norte 15 Nordeste 0 1014.7 1.1 73
2019-06-06 07:00:00 18.2 9 Sur 15 Sudeste 0 1014.4 1 79
2019-06-06 06:00:00 17.9 9 Sudeste 15 Sudeste 0 1013.9 0.8 81
2019-06-06 05:00:00 17.8 8 Sur 13 Sur 0 1013.6 0.6 80
2019-06-06 04:00:00 17.9 9 Sudeste 15 Sudeste 0 1013.4 0.3 79
2019-06-06 03:00:00 17.8 10 Sur 17 Sur 0 1013.1 0.6 78
2019-06-06 02:00:00 17.9 9 Sudeste 15 Sur 0 1013 1.2 79
2019-06-06 01:00:00 17.9 9 Sudeste 22 Sudeste 0 1013.1 2.9 79
2019-06-06 00:00:00 18.4 17 Sudeste 32 Sudeste 0 1012.5 3.4 77
2019-06-05 23:00:00 18.8 22 Este 35 Este 0 1011.8 3.7 76
2019-06-05 22:00:00 21.8 8 Norte 26 Norte 0 1010.2 3.2 40
2019-06-05 21:00:00 22.9 12 Oeste 28 Noroeste 0 1009.1 2.5 37
2019-06-05 20:00:00 24.3 23 Oeste 37 Noroeste 0 1008.1 2 33
2019-06-05 19:00:00 25.2 23 Oeste 33 Oeste 0 1007 1.1 34
2019-06-05 18:00:00 25 24 Noroeste 55 Noroeste 0 1006.6 1.2 34
2019-06-05 17:00:00 26.5 28 Noroeste 61 Noroeste 0 1006.1 0.6 33
2019-06-05 16:00:00 22.3 33 Oeste 46 Oeste 0 1005.9 0.3 77
2019-06-05 15:00:00 23.4 25 Sudoeste 35 Sudoeste 0 1005.4 -1.2 71
2019-06-05 14:00:00 23.4 13 Sur 28 Sur 0 1005.5 -0.8 67
2019-06-05 13:00:00 23.9 12 Sur 18 Sur 0 1005.6 -0.5 64
2019-06-05 12:00:00 22.7 12 Sudeste 26 Nordeste 0 1006.6 0.3 72
2019-06-05 11:00:00 21.1 17 Nordeste 32 Este 0 1006.3 -0.3 77
2019-06-05 10:00:00 20.8 22 Este 32 Este 0 1006.1 -0.4 77
2019-06-05 09:00:00 20.6 23 Este 30 Este 0 1006.3 -0.4 81
2019-06-05 08:00:00 19.5 18 Nordeste 28 Nordeste 0 1006.6 -0.4 84
2019-06-05 07:00:00 18.4 17 Nordeste 24 Este 0 1006.5 -1 88
2019-06-05 06:00:00 16.6 14 Norte 17 Norte 0 1006.7 -1.3 79
2019-06-05 05:00:00 16.9 13 Norte 24 Nordeste 0 1007 -1.6 78
2019-06-05 04:00:00 17.3 15 Norte 18 Norte 0 1007.5 -1.7 79
2019-06-05 03:00:00 17.6 12 Norte 15 Norte 0 1008 -1.5 78
2019-06-05 02:00:00 18.5 13 Norte 22 Nordeste 0 1008.6 -1 75
2019-06-05 01:00:00 19 9 Norte 11 Norte 0 1009.2 -0.1 79
2019-06-05 00:00:00 19.7 4 Norte 11 Este 0 1009.5 0.1 79
2019-06-04 23:00:00 20.9 11 Este 15 Este 0 1009.6 -0.2 82
2019-06-04 22:00:00 21.4 10 Este 15 Sudeste 0 1009.3 -0.6 75
2019-06-04 21:00:00 22.2 8 Sudeste 13 Sur 0 1009.4 -1 70
2019-06-04 20:00:00 22.6 8 Sur 15 Sur 0 1009.8 -1.2 71
2019-06-04 19:00:00 23 12 Sur 18 Sudoeste 0 1009.9 -1.7 70
2019-06-04 18:00:00 23.1 12 Sur 21 Sudoeste 0 1010.4 -1.7 73
2019-06-04 17:00:00 23.6 13 Sudoeste 35 Sudoeste 0 1011 -1.5 71
2019-06-04 16:00:00 23.8 13 Sudoeste 24 Sudoeste 0 1011.6 -1.5 70
2019-06-04 15:00:00 23.6 16 Sudoeste 24 Sudoeste 0 1012.1 -1.1 67
2019-06-04 14:00:00 23.7 15 Sudoeste 26 Sur 0 1012.5 -0.6 67
2019-06-04 13:00:00 23.3 17 Sudoeste 28 Sudoeste 0 1013.1 -0.1 69
2019-06-04 12:00:00 22.7 17 Sudoeste 26 Sudoeste 0 1013.2 0.3 74
2019-06-04 11:00:00 22.1 17 Sudoeste 24 Sudoeste 0 1013.1 0.3 77
2019-06-04 10:00:00 21.8 12 Sudoeste 17 Sudoeste 0 1013.2 0.4 78
2019-06-04 09:00:00 20.9 3 Noroeste 11 Norte 0 1012.9 -0.1 65
2019-06-04 08:00:00 18.4 9 Norte 15 Norte 0 1012.8 -0.4 65
2019-06-04 07:00:00 16.8 9 Norte 15 Norte 0 1012.8 -0.7 71
2019-06-04 06:00:00 16.5 10 Norte 15 Norte 0 1013 -1.2 74
2019-06-04 05:00:00 16.5 4 Norte 8 Noroeste 0 1013.2 -1.7 73
2019-06-04 04:00:00 18.1 0 Calma 8 Noroeste 0 1013.5 -1.8 74
2019-06-04 03:00:00 18.6 3 Norte -- -- 0 1014.2 -1.4 79
2019-06-04 02:00:00 19.3 5 Sudoeste 8 Sudoeste 0 1014.9 -1.1 76
2019-06-04 01:00:00 19.1 5 Oeste 8 Oeste 0 1015.3 -0.4 83
2019-06-04 00:00:00 19.3 7 Sudoeste 9 Sudoeste 0 1015.6 0 88
2019-06-03 23:00:00 19.7 9 Sudoeste 17 Sudoeste 0 1016 0.3 88
2019-06-03 22:00:00 19.9 14 Sudoeste 21 Sudoeste 0 1015.7 -0.4 86
2019-06-03 21:00:00 21.1 14 Sudoeste 21 Sudoeste 0 1015.6 -0.5 82
2019-06-03 20:00:00 21.9 17 Sudoeste 26 Sudoeste 0 1015.7 -0.8 77
2019-06-03 19:00:00 22.7 20 Sudoeste 32 Oeste 0 1016.1 -0.7 69
2019-06-03 18:00:00 23.6 21 Sudoeste 30 Sudoeste 0 1016.1 -1.2 61
2019-06-03 17:00:00 23.8 24 Sudoeste 33 Sudoeste 0 1016.5 -1 62
2019-06-03 16:00:00 23.6 26 Sudoeste 33 Sudoeste 0 1016.8 -0.8 65
2019-06-03 15:00:00 23.8 26 Sudoeste 33 Sudoeste 0 1017.3 -0.4 60
2019-06-03 14:00:00 23.3 25 Sudoeste 32 Sudoeste 0 1017.5 0.1 64
2019-06-03 13:00:00 23.3 24 Sudoeste 35 Sudoeste 0 1017.6 0 61
2019-06-03 12:00:00 22.7 25 Sudoeste 35 Oeste 0 1017.7 0.2 69
2019-06-03 11:00:00 22.3 25 Sudoeste 33 Sudoeste 0 1017.4 0 71
2019-06-03 10:00:00 21.4 22 Sudoeste 28 Oeste 0 1017.6 0.4 76
2019-06-03 09:00:00 20.5 21 Sudoeste 26 Sudoeste 0 1017.5 0.4 83
2019-06-03 08:00:00 19.5 7 Oeste 11 Noroeste 0 1017.4 0.1 76
2019-06-03 07:00:00 17.2 5 Oeste 8 Oeste 0 1017.2 -0.2 63
2019-06-03 06:00:00 17 3 Norte 8 Norte 0 1017.1 -0.5 62
2019-06-03 05:00:00 17.2 5 Norte 8 Norte 0 1017.3 -0.8 61
2019-06-03 04:00:00 17 3 Norte 11 Oeste 0 1017.4 -0.8 76
2019-06-03 03:00:00 17.7 8 Oeste 15 Oeste 0 1017.6 -0.6 88
2019-06-03 02:00:00 18.2 7 Oeste 9 Oeste 0 1018.1 -0.2 81
2019-06-03 01:00:00 18.1 7 Oeste 18 Sudoeste 0 1018.2 0.3 77
2019-06-03 00:00:00 19.1 12 Sudoeste 18 Sudoeste 0 1018.2 0.6 83
2019-06-02 23:00:00 19.7 14 Sudoeste 18 Oeste 0 1018.3 0.7 68
2019-06-02 22:00:00 20.4 14 Oeste 24 Oeste 0 1017.9 0.3 57
2019-06-02 21:00:00 21.2 18 Sudoeste 35 Oeste 0 1017.6 0 59
2019-06-02 20:00:00 22.3 22 Sudoeste 33 Sudoeste 0 1017.6 -0.1 59
2019-06-02 19:00:00 22.8 24 Sudoeste 37 Sudoeste 0 1017.6 -0.6 57
2019-06-02 18:00:00 23 27 Oeste 41 Sudoeste 0 1017.6 -0.9 64
2019-06-02 17:00:00 23 33 Sudoeste 46 Sudoeste 0 1017.7 -1.3 55
2019-06-02 16:00:00 23 36 Sudoeste 46 Sudoeste 0 1018.2 -1.3 59
2019-06-02 15:00:00 23.8 31 Sudoeste 46 Sudoeste 0 1018.5 -1 52
2019-06-02 14:00:00 23.1 38 Sudoeste 45 Sudoeste 0 1019 -0.4 62
2019-06-02 13:00:00 22.5 31 Sudoeste 39 Sudoeste 0 1019.5 0.4 73
2019-06-02 12:00:00 22.2 28 Sudoeste 37 Sudoeste 0 1019.5 0.4 73
2019-06-02 11:00:00 21.3 28 Sudoeste 35 Sudoeste 0 1019.4 0.4 79
2019-06-02 10:00:00 20.7 23 Sudoeste 32 Sudoeste 0 1019.1 0.3 81
2019-06-02 09:00:00 20.4 19 Sudoeste 24 Sudoeste 0 1019.1 0.5 79
2019-06-02 08:00:00 19.7 4 Oeste 8 Oeste 0 1019 0.3 69
2019-06-02 07:00:00 17.3 4 Norte 8 Norte 0 1018.8 -0.3 70
2019-06-02 06:00:00 17 5 Norte 9 Norte 0 1018.6 -1.1 68
2019-06-02 05:00:00 16.9 0 Calma 4 Norte 0 1018.7 -1.4 59
2019-06-02 04:00:00 17.3 2 Este 11 Norte 0 1019.1 -1.4 56
2019-06-02 03:00:00 17.1 8 Norte 17 Sudoeste 0 1019.7 -1 78
2019-06-02 02:00:00 18.3 13 Oeste 18 Sudoeste 0 1020.1 -0.5 88
2019-06-02 01:00:00 18.4 13 Oeste 18 Sudoeste 0 1020.5 0.4 91
2019-06-02 00:00:00 18.8 14 Sudoeste 21 Sudoeste 0 1020.7 1 89
2019-06-01 23:00:00 19.2 18 Sudoeste 26 Sudoeste 0 1020.6 1.2 89
2019-06-01 22:00:00 19.5 17 Sudoeste 26 Sudoeste 0 1020.1 0.7 75
2019-06-01 21:00:00 20.6 21 Sudoeste 33 Sudoeste 0 1019.7 0 65
2019-06-01 20:00:00 21.6 26 Sudoeste 41 Sudoeste 0 1019.4 -0.6 62
2019-06-01 19:00:00 22.5 26 Oeste 39 Oeste 0 1019.4 -1 56
2019-06-01 18:00:00 23 29 Sudoeste 42 Oeste 0 1019.7 -1.1 54
2019-06-01 17:00:00 23.5 34 Sudoeste 42 Sudoeste 0 1020 -1.3 51
2019-06-01 16:00:00 23.5 33 Oeste 45 Oeste 0 1020.4 -1.2 58
2019-06-01 15:00:00 23.1 35 Sudoeste 45 Sudoeste 0 1020.8 -1 58
2019-06-01 14:00:00 22.9 31 Sudoeste 45 Sudoeste 0 1021.3 -0.5 67
2019-06-01 13:00:00 22.1 34 Sudoeste 42 Sudoeste 0 1021.6 -0.3 70
2019-06-01 12:00:00 21.6 33 Sudoeste 39 Sudoeste 0 1021.8 0 73
2019-06-01 11:00:00 21.4 25 Sudoeste 35 Sudoeste 0 1021.8 0.2 75
2019-06-01 10:00:00 21.9 15 Oeste 28 Oeste 0 1021.9 0.6 67
2019-06-01 09:00:00 20.9 14 Oeste 21 Oeste 0 1021.8 0.8 71
2019-06-01 08:00:00 19.7 7 Oeste 13 Oeste 0 1021.6 0.5 70
2019-06-01 07:00:00 17.9 6 Oeste 11 Sudoeste 0 1021.3 0.1 71
2019-06-01 06:00:00 17.1 3 Oeste 13 Norte 0 1021 -0.4 65
2019-06-01 05:00:00 17.1 2 Noroeste 11 Norte 0 1021.1 -0.6 64
2019-06-01 04:00:00 17.6 3 Norte 15 Norte 0 1021.2 -1 61
2019-06-01 03:00:00 18.2 5 Norte 11 Norte 0 1021.4 -1 58
2019-06-01 02:00:00 18.8 2 Nordeste 9 Oeste 0 1021.7 -1 58
2019-06-01 01:00:00 18.6 5 Oeste 18 Oeste 0 1022.2 -0.2 58
2019-06-01 00:00:00 18.8 15 Oeste 21 Oeste 0 1022.4 0.2 67
2019-05-31 23:00:00 19.9 14 Sudoeste 24 Oeste 0 1022.7 0.6 54
2019-05-31 22:00:00 20.3 18 Sudoeste 26 Oeste 0 1022.4 0.3 53
2019-05-31 21:00:00 20.9 20 Sudoeste 30 Sudoeste 0 1022.2 -0.2 51
2019-05-31 20:00:00 21.9 23 Sudoeste 33 Sudoeste 0 1022.1 -0.7 52
2019-05-31 19:00:00 22.4 27 Sudoeste 35 Sudoeste 0 1022.1 -1.1 54
2019-05-31 18:00:00 22.9 26 Sudoeste 32 Oeste 0 1022.4 -1.1 51
2019-05-31 17:00:00 22.9 25 Sudoeste 32 Sudoeste 0 1022.8 -0.9 63
2019-05-31 16:00:00 23 23 Sudoeste 32 Sudoeste 0 1023.2 -0.8 61
2019-05-31 15:00:00 23.1 24 Sudoeste 32 Sudoeste 0 1023.5 -0.6 48
2019-05-31 14:00:00 22.7 22 Sudoeste 28 Sudoeste 0 1023.7 -0.4 52
2019-05-31 13:00:00 23 20 Sudoeste 26 Sudoeste 0 1024 -0.2 52
2019-05-31 12:00:00 22.8 13 Sur 17 Sudoeste 0 1024.1 0.1 54
2019-05-31 11:00:00 22.6 11 Sur 15 Sur 0 1024.1 0.3 53
2019-05-31 10:00:00 22 8 Norte 18 Norte 0 1024.2 0.6 50
2019-05-31 09:00:00 19.2 16 Norte 24 Norte 0 1024 0.5 62
2019-05-31 08:00:00 17 16 Norte 24 Norte 0 1023.8 0.2 71
2019-05-31 07:00:00 15.7 13 Norte 18 Norte 0 1023.6 -0.4 76
2019-05-31 06:00:00 15.4 13 Norte 21 Norte 0 1023.5 -1 80
2019-05-31 05:00:00 15.7 12 Norte 18 Norte 0 1023.6 -1.2 81
2019-05-31 04:00:00 15.6 10 Norte 13 Norte 0 1024 -1 75
2019-05-31 03:00:00 16.1 9 Noroeste 11 Noroeste 0 1024.5 -0.7 81
2019-05-31 02:00:00 16.7 6 Norte 9 Oeste 0 1024.8 -0.3 85
2019-05-31 01:00:00 17.4 6 Oeste 15 Sudoeste 0 1025 0.5 92
2019-05-31 00:00:00 17.7 6 Sudoeste 17 Sudoeste 0 1025.2 1.4 92
2019-05-30 23:00:00 18.4 13 Sudoeste 26 Sudoeste 0 1025.1 1.7 89
2019-05-30 22:00:00 18.7 14 Sudoeste 21 Sudoeste 0 1024.5 1.2 87
2019-05-30 21:00:00 19.3 16 Sudoeste 26 Sudoeste 0 1023.8 0.3 83
2019-05-30 20:00:00 20 20 Sudoeste 30 Sudoeste 0 1023.4 -0.3 79
2019-05-30 19:00:00 20.6 22 Sudoeste 30 Sudoeste 0 1023.3 -0.6 75
2019-05-30 18:00:00 21.3 22 Sudoeste 26 Oeste 0 1023.5 -0.8 59
2019-05-30 17:00:00 21.3 18 Sudoeste 26 Sudoeste 0 1023.7 -0.9 57
2019-05-30 16:00:00 21 17 Sudoeste 26 Sudoeste 0 1023.9 -0.7 63
2019-05-30 15:00:00 20.4 15 Sudoeste 26 Sudoeste 0 1024.3 -0.4 69
2019-05-30 14:00:00 20.7 15 Sudoeste 26 Sur 0 1024.6 0 69
2019-05-30 13:00:00 20.4 14 Sur 21 Sur 0 1024.6 0.1 66
2019-05-30 12:00:00 20.5 14 Sur 18 Sudeste 0 1024.7 0.3 66
2019-05-30 11:00:00 20.1 11 Sudoeste 21 Sudoeste 0 1024.6 0.5 64
2019-05-30 10:00:00 19.8 3 Norte 18 Norte 0 1024.5 0.8 60
2019-05-30 09:00:00 17.3 13 Norte 21 Norte 0 1024.4 1.1 69
2019-05-30 08:00:00 15.5 17 Norte 24 Norte 0 1024.1 1.1 76
2019-05-30 07:00:00 14.2 15 Norte 21 Norte 0 1023.7 0.4 82
2019-05-30 06:00:00 14 12 Norte 17 Norte 0 1023.3 0 85
2019-05-30 05:00:00 14 5 Norte 13 Norte 0 1023 -0.4 85
2019-05-30 04:00:00 14.6 8 Nordeste 11 Norte 0 1023.3 -0.3 83
2019-05-30 03:00:00 15 5 Noroeste 11 Norte 0 1023.3 -0.1 81
2019-05-30 02:00:00 15.9 10 Norte 22 Nordeste 0 1023.4 0.5 78
2019-05-30 01:00:00 16.3 9 Norte 11 Norte 0 1023.6 1.5 84
2019-05-30 00:00:00 17.4 6 Oeste 11 Sudoeste 0 1023.4 1.9 84
2019-05-29 23:00:00 17.7 9 Oeste 13 Sudoeste 0 1022.9 2.5 82
2019-05-29 22:00:00 18.1 10 Sudoeste 13 Sudoeste 0 1022.1 2.3 78
2019-05-29 21:00:00 19 8 Sur 17 Sur 0 1021.5 1.8 71
2019-05-29 20:00:00 19.7 12 Sudeste 21 Sur 0 1020.4 0.9 68
2019-05-29 19:00:00 20.1 14 Sudeste 26 Sur 0 1019.8 0.3 66
2019-05-29 18:00:00 20.1 17 Sur 28 Sur 0 1019.7 0.1 71
2019-05-29 17:00:00 20.7 19 Sur 35 Sudoeste 0 1019.5 -0.2 66
2019-05-29 16:00:00 20.6 25 Sudoeste 37 Sudoeste 0 1019.5 -0.2 65
2019-05-29 15:00:00 20.4 26 Sudoeste 35 Sudoeste 0 1019.6 0.1 62
2019-05-29 14:00:00 20.4 26 Sudoeste 35 Sudoeste 0 1019.7 0.1 62
2019-05-29 13:00:00 20.4 24 Sudoeste 35 Sudoeste 0 1019.7 0.1 60
2019-05-29 12:00:00 20.1 24 Sudoeste 32 Oeste 0 1019.5 0.3 61
2019-05-29 11:00:00 20.1 17 Sudoeste 24 Sudoeste 0 1019.6 0.9 61
2019-05-29 10:00:00 19.5 5 Oeste 17 Oeste 0 1019.6 1.4 58
2019-05-29 09:00:00 17.8 7 Norte 24 Norte 0 1019.2 1.3 55
2019-05-29 08:00:00 16.4 10 Norte 17 Norte 0 1018.7 1.1 61
2019-05-29 07:00:00 15.3 14 Norte 21 Norte 0 1018.2 0.9 63
2019-05-29 06:00:00 16.1 15 Norte 22 Norte 0 1017.9 0.9 63
2019-05-29 05:00:00 16.8 14 Este 22 Este 0 1017.6 0.6 81
2019-05-29 04:00:00 17 9 Nordeste 13 Nordeste 0 1017.3 0.5 82
2019-05-29 03:00:00 17.5 14 Este 17 Este 0 1017 0.6 83
2019-05-29 02:00:00 17.7 7 Este 9 Este 0 1017 0.8 80
2019-05-29 01:00:00 17.8 7 Este 11 Sur 0 1016.8 1 78
2019-05-29 00:00:00 17.9 5 Este 11 Sudeste 0 1016.4 1.5 76
2019-05-28 23:00:00 18.1 6 Sur 13 Sur 0 1016.2 1.7 73
2019-05-28 22:00:00 18 5 Sudeste 17 Sudeste 0 1015.8 1.9 75
2019-05-28 21:00:00 18.5 14 Sudeste 21 Sudeste 0 1014.9 1 73
2019-05-28 20:00:00 18.9 13 Sudeste 24 Sudeste 0 1014.5 0.8 70
2019-05-28 19:00:00 19.2 14 Sudeste 30 Sudeste 0 1013.9 0.2 69
2019-05-28 18:00:00 19.4 18 Sudeste 32 Sudeste 0 1013.9 0.4 66
2019-05-28 17:00:00 19.4 18 Sudeste 28 Sudeste 0 1013.7 0.3 70
2019-05-28 16:00:00 19.2 18 Sudeste 30 Sudeste 0 1013.7 0.4 76
2019-05-28 15:00:00 19.6 21 Sur 33 Sur 0 1013.5 0.5 74
2019-05-28 14:00:00 19.5 18 Sudeste 28 Sur 0 1013.4 0.8 75
2019-05-28 13:00:00 20.4 20 Sudeste 30 Este 0 1013.3 0.7 73
2019-05-28 12:00:00 20.1 17 Sudeste 26 Sudeste 0 1013 0.8 73
2019-05-28 11:00:00 20.5 14 Norte 26 Norte 0 1012.6 0.6 58
2019-05-28 10:00:00 19.4 19 Norte 28 Norte 0 1012.6 1.2 61
2019-05-28 09:00:00 17.8 14 Norte 21 Norte 0 1012.2 0.9 69
2019-05-28 08:00:00 16.2 10 Norte 13 Norte 0 1012 0.8 80
2019-05-28 07:00:00 15.8 6 Norte 13 Norte 0 1011.4 0 92
2019-05-28 06:00:00 16.1 10 Norte 13 Norte 0 1011.3 -0.2 93
2019-05-28 05:00:00 16.6 7 Norte 9 Norte 0 1011.2 -0.6 91
2019-05-28 04:00:00 16.7 8 Oeste 11 Oeste 0 1011.4 -1.3 89
2019-05-28 03:00:00 16.8 8 Oeste 9 Oeste 0 1011.5 -1.4 89
2019-05-28 02:00:00 17.4 4 Sudeste 15 Este 0 1011.8 -0.5 85
2019-05-28 01:00:00 17.6 9 Sudeste 22 Este 1 1012.7 1.3 83
2019-05-28 00:00:00 19 9 Sudeste 15 Este 0 1012.9 1.8 79